createdAt,value
2023-02-25T00:02:10.910Z,25.95
2023-02-25T00:04:40.694Z,27.23
2023-02-25T00:07:09.647Z,27.25
2023-02-25T00:09:37.860Z,21.92
2023-02-25T00:12:06.316Z,27.45
2023-02-25T00:14:37.063Z,27.23
2023-02-25T00:17:06.573Z,23.50
2023-02-25T00:19:34.820Z,34.25
2023-02-25T00:22:03.030Z,27.58
2023-02-25T00:24:31.148Z,32.08
2023-02-25T00:26:59.350Z,41.00
2023-02-25T00:29:29.874Z,29.48
2023-02-25T00:31:58.121Z,12.60
2023-02-25T00:34:28.586Z,11.73
2023-02-25T00:36:57.983Z,14.23
2023-02-25T00:39:41.888Z,16.42
2023-02-25T00:42:10.638Z,17.08
2023-02-25T00:44:39.522Z,10.65
2023-02-25T00:47:08.955Z,12.82
2023-02-25T00:49:40.279Z,12.82
2023-02-25T00:52:09.054Z,11.95
2023-02-25T00:54:37.252Z,12.75
2023-02-25T00:57:08.040Z,15.88
2023-02-25T00:59:37.221Z,14.73
2023-02-25T01:02:06.227Z,15.90
2023-02-25T01:04:34.652Z,15.98
2023-02-25T01:07:07.848Z,15.68
2023-02-25T01:09:36.155Z,21.58
2023-02-25T01:12:04.890Z,21.05
2023-02-25T01:14:33.389Z,21.38
2023-02-25T01:17:03.284Z,29.70
2023-02-25T01:19:31.422Z,25.60
2023-02-25T01:22:00.596Z,23.65
2023-02-25T01:24:31.868Z,25.60
2023-02-25T01:27:02.156Z,27.25
2023-02-25T01:29:32.593Z,26.08
2023-02-25T01:32:03.083Z,27.75
2023-02-25T01:34:31.944Z,32.67
2023-02-25T01:37:03.473Z,22.38
2023-02-25T01:39:34.194Z,22.92
2023-02-25T01:42:05.772Z,26.15
2023-02-25T01:44:36.292Z,21.67
2023-02-25T01:47:07.202Z,34.40
2023-02-25T01:49:39.709Z,22.83
2023-02-25T01:52:12.479Z,26.17
2023-02-25T01:57:12.718Z,33.25
2023-02-25T01:59:43.308Z,41.85
2023-02-25T02:02:14.061Z,31.55
2023-02-25T02:04:43.995Z,30.00
2023-02-25T02:07:14.441Z,33.10
2023-02-25T02:09:55.883Z,33.97
2023-02-25T02:12:26.790Z,29.67
2023-02-25T02:14:58.411Z,26.65
2023-02-25T02:17:34.539Z,28.83
2023-02-25T02:20:13.125Z,26.33
2023-02-25T02:23:00.854Z,22.98
2023-02-25T02:26:03.503Z,22.50
2023-02-25T02:29:09.544Z,17.27
2023-02-25T02:31:49.034Z,26.05
2023-02-25T02:34:29.064Z,29.63
2023-02-25T02:37:08.988Z,21.33
2023-02-25T02:39:50.914Z,19.10
2023-02-25T02:42:28.276Z,19.23
2023-02-25T02:45:02.928Z,16.58
2023-02-25T02:47:36.341Z,14.80
2023-02-25T02:50:11.421Z,14.30
2023-02-25T02:52:42.826Z,13.30
2023-02-25T02:55:22.605Z,16.55
2023-02-25T02:57:58.409Z,13.70
2023-02-25T03:00:31.983Z,9.07
2023-02-25T03:03:06.656Z,11.75
2023-02-25T03:05:38.199Z,11.88
2023-02-25T03:08:10.843Z,13.05
2023-02-25T03:10:39.409Z,11.43
2023-02-25T03:13:08.022Z,9.27
2023-02-25T03:15:39.318Z,13.45
2023-02-25T03:18:17.545Z,9.57
2023-02-25T03:20:49.511Z,14.05
2023-02-25T03:23:22.290Z,11.37
2023-02-25T03:28:30.996Z,11.25
2023-02-25T03:31:03.176Z,11.38
2023-02-25T03:33:37.292Z,10.67
2023-02-25T03:36:11.651Z,10.90
2023-02-25T03:38:45.359Z,9.57
2023-02-25T03:41:18.461Z,7.95
2023-02-25T03:43:54.801Z,11.02
2023-02-25T03:46:25.107Z,8.02
2023-02-25T03:48:56.252Z,6.38
2023-02-25T03:51:29.421Z,5.85
2023-02-25T03:53:58.031Z,6.63
2023-02-25T03:56:42.827Z,6.88
2023-02-25T03:59:11.065Z,5.40
2023-02-25T04:01:43.666Z,6.78
2023-02-25T04:04:13.383Z,4.88
2023-02-25T04:06:42.039Z,9.00
2023-02-25T04:09:10.129Z,5.18
2023-02-25T04:11:40.346Z,3.85
2023-02-25T04:14:09.865Z,5.32
2023-02-25T04:16:38.230Z,9.20
2023-02-25T04:19:06.366Z,8.88
2023-02-25T04:21:39.307Z,5.38
2023-02-25T04:24:08.566Z,3.90
2023-02-25T04:26:36.970Z,5.30
2023-02-25T04:29:05.840Z,4.32
2023-02-25T04:31:34.110Z,6.63
2023-02-25T04:34:02.401Z,6.10
2023-02-25T04:36:31.914Z,4.95
2023-02-25T04:39:04.395Z,4.32
2023-02-25T04:41:37.404Z,4.50
2023-02-25T04:44:09.001Z,3.20
2023-02-25T04:46:39.562Z,2.45
2023-02-25T04:49:08.214Z,3.72
2023-02-25T04:51:37.226Z,4.50
2023-02-25T04:54:07.174Z,4.65
2023-02-25T04:56:38.816Z,5.45
2023-02-25T04:59:07.362Z,4.22
2023-02-25T05:01:38.339Z,7.57
2023-02-25T05:04:07.031Z,8.77
2023-02-25T05:06:35.738Z,7.93
2023-02-25T05:09:05.513Z,12.95
2023-02-25T05:11:35.017Z,12.80
2023-02-25T05:14:03.153Z,13.93
2023-02-25T05:16:31.399Z,15.75
2023-02-25T05:18:59.622Z,15.13
2023-02-25T05:21:29.301Z,14.82
2023-02-25T05:23:57.533Z,17.17
2023-02-25T05:26:28.098Z,14.38
2023-02-25T05:28:58.389Z,10.68
2023-02-25T05:31:27.369Z,12.52
2023-02-25T05:33:55.520Z,9.43
2023-02-25T05:36:27.449Z,10.50
2023-02-25T05:38:58.725Z,7.63
2023-02-25T05:41:27.380Z,9.73
2023-02-25T05:43:58.167Z,8.60
2023-02-25T05:46:27.265Z,8.13
2023-02-25T05:48:55.888Z,13.77
2023-02-25T05:51:24.748Z,8.23
2023-02-25T05:53:53.687Z,9.10
2023-02-25T05:56:25.645Z,8.13
2023-02-25T05:58:54.726Z,7.82
2023-02-25T06:01:27.751Z,13.18
2023-02-25T06:03:58.579Z,9.52
2023-02-25T06:06:28.417Z,13.35
2023-02-25T06:08:56.947Z,10.82
2023-02-25T06:11:26.872Z,8.73
2023-02-25T06:13:56.339Z,9.48
2023-02-25T06:16:31.757Z,9.88
2023-02-25T06:19:01.046Z,12.38
2023-02-25T06:21:29.303Z,15.30
2023-02-25T06:23:57.456Z,14.80
2023-02-25T06:26:25.914Z,11.68
2023-02-25T06:28:54.720Z,9.30
2023-02-25T06:31:25.694Z,14.20
2023-02-25T06:33:55.248Z,14.70
2023-02-25T06:36:24.321Z,12.40
2023-02-25T06:38:52.768Z,13.38
2023-02-25T06:41:24.177Z,14.20
2023-02-25T06:43:53.356Z,16.92
2023-02-25T06:46:24.472Z,13.52
2023-02-25T06:48:54.676Z,12.95
2023-02-25T06:51:23.083Z,13.20
2023-02-25T06:53:53.016Z,16.33
2023-02-25T06:56:22.150Z,18.20
2023-02-25T06:58:52.508Z,16.38
2023-02-25T07:01:21.285Z,15.48
2023-02-25T07:03:49.687Z,15.80
2023-02-25T07:06:19.762Z,14.60
2023-02-25T07:08:50.748Z,15.35
2023-02-25T07:11:29.808Z,17.20
2023-02-25T07:13:58.825Z,16.30
2023-02-25T07:16:29.877Z,15.23
2023-02-25T07:18:58.865Z,14.93
2023-02-25T07:21:30.555Z,14.77
2023-02-25T07:24:01.016Z,10.05
2023-02-25T07:26:29.382Z,7.20
2023-02-25T07:28:58.117Z,6.47
2023-02-25T07:31:27.968Z,9.80
2023-02-25T07:33:57.006Z,6.78
2023-02-25T07:36:27.467Z,7.22
2023-02-25T07:38:57.631Z,6.35
2023-02-25T07:41:25.951Z,8.05
2023-02-25T07:43:54.187Z,7.70
2023-02-25T07:46:22.772Z,8.60
2023-02-25T07:48:50.994Z,6.93
2023-02-25T07:51:21.967Z,6.35
2023-02-25T07:53:51.596Z,5.03
2023-02-25T07:56:23.190Z,4.75
2023-02-25T07:58:51.487Z,5.57
2023-02-25T08:01:23.507Z,4.65
2023-02-25T08:03:53.935Z,4.82
2023-02-25T08:06:22.607Z,6.28
2023-02-25T08:08:52.033Z,5.80
2023-02-25T08:11:23.358Z,8.50
2023-02-25T08:13:51.752Z,5.47
2023-02-25T08:16:21.436Z,7.93
2023-02-25T08:18:50.214Z,7.68
2023-02-25T08:21:24.496Z,6.45
2023-02-25T08:23:55.005Z,7.55
2023-02-25T08:26:27.193Z,5.07
2023-02-25T08:28:55.559Z,3.92
2023-02-25T08:31:24.460Z,7.10
2023-02-25T08:33:53.673Z,3.58
2023-02-25T08:36:24.212Z,5.05
2023-02-25T08:38:53.305Z,4.63
2023-02-25T08:41:27.285Z,4.60
2023-02-25T08:43:57.335Z,4.20
2023-02-25T08:46:28.180Z,2.20
2023-02-25T08:48:57.510Z,4.47
2023-02-25T08:51:34.052Z,2.92
2023-02-25T08:54:04.443Z,4.88
2023-02-25T08:56:35.109Z,5.20
2023-02-25T09:01:44.754Z,6.05
2023-02-25T09:04:13.885Z,7.57
2023-02-25T09:06:42.236Z,5.25
2023-02-25T09:09:11.619Z,5.07
2023-02-25T09:11:42.766Z,6.28
2023-02-25T09:14:11.497Z,5.85
2023-02-25T09:16:39.983Z,3.28
2023-02-25T09:19:10.672Z,8.50
2023-02-25T09:21:40.452Z,5.47
2023-02-25T09:24:09.814Z,5.03
2023-02-25T09:26:40.758Z,3.58
2023-02-25T09:29:10.261Z,2.88
2023-02-25T09:31:41.170Z,3.47
2023-02-25T09:34:13.897Z,2.50
2023-02-25T09:36:42.452Z,4.53
2023-02-25T09:39:10.741Z,4.20
2023-02-25T09:41:55.609Z,5.95
2023-02-25T09:44:28.250Z,4.55
2023-02-25T09:47:01.288Z,4.28
2023-02-25T09:49:31.529Z,2.67
2023-02-25T09:52:03.016Z,4.00
2023-02-25T09:54:34.462Z,5.15
2023-02-25T09:57:08.989Z,5.97
2023-02-25T09:59:37.589Z,1.90
2023-02-25T10:02:15.593Z,3.60
2023-02-25T10:04:48.214Z,2.55
2023-02-25T10:07:20.753Z,2.97
2023-02-25T10:09:51.532Z,1.23
2023-02-25T10:12:26.874Z,3.38
2023-02-25T10:15:10.448Z,4.35
2023-02-25T10:17:44.371Z,2.03
2023-02-25T10:20:23.548Z,3.13
2023-02-25T10:22:58.889Z,3.08
2023-02-25T10:25:30.239Z,7.07
2023-02-25T10:28:02.097Z,5.00
2023-02-25T10:30:36.988Z,16.95
2023-02-25T10:33:08.706Z,1.40
2023-02-25T10:35:40.234Z,10.38
2023-02-25T10:38:11.077Z,1.90
2023-02-25T10:40:41.500Z,3.83
2023-02-25T10:43:20.301Z,1.80
2023-02-25T10:45:51.587Z,1.52
2023-02-25T10:48:21.135Z,2.50
2023-02-25T10:51:03.837Z,9.13
2023-02-25T10:53:32.921Z,2.85
2023-02-25T10:56:02.674Z,5.32
2023-02-25T10:58:41.679Z,2.97
2023-02-25T11:01:15.071Z,8.15
2023-02-25T11:03:46.804Z,11.48
2023-02-25T11:06:21.664Z,2.40
2023-02-25T11:08:52.227Z,2.85
2023-02-25T11:11:22.703Z,3.00
2023-02-25T11:14:12.434Z,4.22
2023-02-25T11:16:44.493Z,4.88
2023-02-25T11:19:16.007Z,3.15
2023-02-25T11:21:45.109Z,4.72
2023-02-25T11:24:15.834Z,2.72
2023-02-25T11:26:46.788Z,2.13
2023-02-25T11:29:16.685Z,3.03
2023-02-25T11:31:49.499Z,4.43
2023-02-25T11:34:44.067Z,2.47
2023-02-25T11:37:28.986Z,2.67
2023-02-25T11:39:59.251Z,1.42
2023-02-25T11:42:30.155Z,2.90
2023-02-25T11:45:02.170Z,1.65
2023-02-25T11:47:33.614Z,2.58
2023-02-25T11:50:09.241Z,2.10
2023-02-25T11:52:45.045Z,2.80
2023-02-25T11:55:21.561Z,3.47
2023-02-25T11:57:55.615Z,2.33
2023-02-25T12:00:26.636Z,2.42
2023-02-25T12:03:10.470Z,3.60
2023-02-25T12:05:50.512Z,3.38
2023-02-25T12:08:24.620Z,2.75
2023-02-25T12:11:08.007Z,2.25
2023-02-25T12:13:51.194Z,3.45
2023-02-25T12:16:36.564Z,1.50
2023-02-25T12:19:31.889Z,4.82
2023-02-25T12:22:14.955Z,2.05
2023-02-25T12:24:49.898Z,5.25
2023-02-25T12:27:34.325Z,5.15
2023-02-25T12:30:09.667Z,6.55
2023-02-25T12:32:53.952Z,3.75
2023-02-25T12:35:38.536Z,3.58
2023-02-25T12:38:21.178Z,5.65
2023-02-25T12:41:02.489Z,2.45
2023-02-25T12:43:36.243Z,2.30
2023-02-25T12:46:16.483Z,3.72
2023-02-25T12:48:56.932Z,3.42
2023-02-25T12:51:34.088Z,3.88
2023-02-25T12:54:09.970Z,2.90
2023-02-25T12:56:56.945Z,3.95
2023-02-25T12:59:32.491Z,8.25
2023-02-25T13:02:14.534Z,2.83
2023-02-25T13:04:56.145Z,2.67
2023-02-25T13:07:32.361Z,3.33
2023-02-25T13:10:07.287Z,3.90
2023-02-25T13:12:47.995Z,4.57
2023-02-25T13:15:20.900Z,4.47
2023-02-25T13:17:58.889Z,4.55
2023-02-25T13:20:52.495Z,3.17
2023-02-25T13:23:29.910Z,2.60
2023-02-25T13:26:09.567Z,4.32
2023-02-25T13:28:44.876Z,3.33
2023-02-25T13:31:17.517Z,4.22
2023-02-25T13:33:53.550Z,4.45
2023-02-25T13:36:34.744Z,3.33
2023-02-25T13:39:16.583Z,7.45
2023-02-25T13:41:57.939Z,3.35
2023-02-25T13:44:34.346Z,3.90
2023-02-25T13:47:16.696Z,4.80
2023-02-25T13:50:03.226Z,6.82
2023-02-25T13:52:34.227Z,4.22
2023-02-25T13:55:25.809Z,6.35
2023-02-25T13:58:05.657Z,5.82
2023-02-25T14:01:07.718Z,3.60
2023-02-25T14:03:51.107Z,2.78
2023-02-25T14:06:31.246Z,2.75
2023-02-25T14:09:11.358Z,5.13
2023-02-25T14:11:45.327Z,13.43
2023-02-25T14:14:29.834Z,9.45
2023-02-25T14:17:10.767Z,9.80
2023-02-25T14:19:42.293Z,9.90
2023-02-25T14:22:22.458Z,13.18
2023-02-25T14:24:56.004Z,8.63
2023-02-25T14:27:29.656Z,6.25
2023-02-25T14:30:06.929Z,5.10
2023-02-25T14:32:43.941Z,5.82
2023-02-25T14:35:17.068Z,9.65
2023-02-25T14:37:50.007Z,8.77
2023-02-25T14:40:26.830Z,13.90
2023-02-25T14:43:06.240Z,7.30
2023-02-25T14:45:37.700Z,4.53
2023-02-25T14:48:07.848Z,4.15
2023-02-25T14:50:39.656Z,3.55
2023-02-25T14:53:20.172Z,9.40
2023-02-25T14:55:59.401Z,4.60
2023-02-25T14:58:42.682Z,7.72
2023-02-25T15:01:32.506Z,4.78
2023-02-25T15:04:13.062Z,4.90
2023-02-25T15:06:56.538Z,8.60
2023-02-25T15:09:55.548Z,7.43
2023-02-25T15:12:32.101Z,6.10
2023-02-25T15:15:17.802Z,5.35
2023-02-25T15:18:12.270Z,6.30
2023-02-25T15:20:43.880Z,4.38
2023-02-25T15:23:13.326Z,5.65
2023-02-25T15:25:43.700Z,4.88
2023-02-25T15:28:44.877Z,4.50
2023-02-25T15:31:28.524Z,6.65
2023-02-25T15:34:26.398Z,5.20
2023-02-25T15:37:19.595Z,4.25
2023-02-25T15:39:49.859Z,3.60
2023-02-25T15:42:18.865Z,2.45
2023-02-25T15:44:47.796Z,3.58
2023-02-25T15:47:30.156Z,2.90
2023-02-25T15:49:59.344Z,5.43
2023-02-25T15:52:46.545Z,3.42
2023-02-25T15:55:21.747Z,3.22
2023-02-25T15:57:50.533Z,4.88
2023-02-25T16:00:38.038Z,4.40
2023-02-25T16:03:26.809Z,4.78
2023-02-25T16:05:56.450Z,7.90
2023-02-25T16:08:26.719Z,5.45
2023-02-25T16:10:57.995Z,5.88
2023-02-25T16:13:29.082Z,7.20
2023-02-25T16:15:58.413Z,6.90
2023-02-25T16:18:30.094Z,5.50
2023-02-25T16:21:01.598Z,6.18
2023-02-25T16:23:31.843Z,3.00
2023-02-25T16:26:07.540Z,4.93
2023-02-25T16:28:40.448Z,2.88
2023-02-25T16:31:16.263Z,3.53
2023-02-25T16:33:48.438Z,5.45
2023-02-25T16:36:20.634Z,3.25
2023-02-25T16:38:56.194Z,2.85
2023-02-25T16:41:36.320Z,2.58
2023-02-25T16:44:06.698Z,4.28
2023-02-25T16:46:37.444Z,3.35
2023-02-25T16:49:09.738Z,3.53
2023-02-25T16:51:39.764Z,2.30
2023-02-25T16:54:12.549Z,4.85
2023-02-25T16:56:44.221Z,3.13
2023-02-25T16:59:18.480Z,5.63
2023-02-25T17:01:50.677Z,11.23
2023-02-25T17:04:20.647Z,5.07
2023-02-25T17:07:04.049Z,5.35
2023-02-25T17:09:32.650Z,4.45
2023-02-25T17:12:03.349Z,5.38
2023-02-25T17:14:32.450Z,4.53
2023-02-25T17:17:02.265Z,4.70
2023-02-25T17:19:31.884Z,3.38
2023-02-25T17:22:01.958Z,6.25
2023-02-25T17:24:32.611Z,8.25
2023-02-25T17:27:02.201Z,4.13
2023-02-25T17:29:36.518Z,8.35
2023-02-25T17:32:22.387Z,5.60
2023-02-25T17:34:52.317Z,4.85
2023-02-25T17:37:21.505Z,3.72
2023-02-25T17:39:50.733Z,3.90
2023-02-25T17:42:28.590Z,5.85
2023-02-25T17:44:59.369Z,7.22
2023-02-25T17:47:29.737Z,7.18
2023-02-25T17:49:59.032Z,7.60
2023-02-25T17:52:30.014Z,7.28
2023-02-25T17:55:00.647Z,6.47
2023-02-25T17:57:29.967Z,7.88
2023-02-25T18:00:04.478Z,9.15
2023-02-25T18:02:39.796Z,5.97
2023-02-25T18:05:22.640Z,4.35
2023-02-25T18:08:09.131Z,4.30
2023-02-25T18:10:58.292Z,12.98
2023-02-25T18:13:29.091Z,9.05
2023-02-25T18:16:15.218Z,7.97
2023-02-25T18:18:43.851Z,10.43
2023-02-25T18:21:12.836Z,9.52
2023-02-25T18:23:42.107Z,10.48
2023-02-25T18:26:18.876Z,10.98
2023-02-25T18:28:47.524Z,9.98
2023-02-25T18:31:19.732Z,10.10
2023-02-25T18:33:48.514Z,11.80
2023-02-25T18:36:23.444Z,7.72
2023-02-25T18:38:52.667Z,10.50
2023-02-25T18:41:21.126Z,11.05
2023-02-25T18:43:49.780Z,6.35
2023-02-25T18:46:19.852Z,6.65
2023-02-25T18:48:52.096Z,11.55
2023-02-25T18:51:20.638Z,13.63
2023-02-25T18:53:49.306Z,9.23
2023-02-25T18:56:18.815Z,10.30
2023-02-25T18:58:50.246Z,7.90
2023-02-25T19:01:24.463Z,8.40
2023-02-25T19:03:54.042Z,8.70
2023-02-25T19:06:23.105Z,12.18
2023-02-25T19:08:52.194Z,9.82
2023-02-25T19:11:22.432Z,5.70
2023-02-25T19:13:53.028Z,10.88
2023-02-25T19:16:23.790Z,9.35
2023-02-25T19:18:52.638Z,10.75
2023-02-25T19:21:26.787Z,9.90
2023-02-25T19:23:58.238Z,7.07
2023-02-25T19:26:27.273Z,8.35
2023-02-25T19:28:58.369Z,6.00
2023-02-25T19:31:30.420Z,7.40
2023-02-25T19:34:00.975Z,10.32
2023-02-25T19:36:29.455Z,7.82
2023-02-25T19:38:58.446Z,7.88
2023-02-25T19:41:26.925Z,9.93
2023-02-25T19:43:55.323Z,10.32
2023-02-25T19:46:25.553Z,6.30
2023-02-25T19:48:56.096Z,10.27
2023-02-25T19:51:24.561Z,51.97
2023-02-25T19:54:02.469Z,8.95
2023-02-25T19:56:30.982Z,9.80
2023-02-25T19:58:59.624Z,7.57
2023-02-25T20:01:28.087Z,6.05
2023-02-25T20:03:57.986Z,11.40
2023-02-25T20:09:37.297Z,11.63
2023-02-25T20:12:06.450Z,11.85
2023-02-25T20:14:42.821Z,10.70
2023-02-25T20:17:12.264Z,9.20
2023-02-25T20:19:42.109Z,7.65
2023-02-25T20:22:14.616Z,8.35
2023-02-25T20:27:14.744Z,10.32
2023-02-25T20:29:43.587Z,6.53
2023-02-25T20:32:12.157Z,8.55
2023-02-25T20:34:43.109Z,8.05
2023-02-25T20:37:14.042Z,7.05
2023-02-25T20:39:50.606Z,10.32
2023-02-25T20:42:20.992Z,5.53
2023-02-25T20:44:51.455Z,12.98
2023-02-25T20:47:21.688Z,10.18
2023-02-25T20:49:52.235Z,13.07
2023-02-25T20:52:20.990Z,4.35
2023-02-25T20:54:49.939Z,7.80
2023-02-25T20:57:19.558Z,5.68
2023-02-25T20:59:48.429Z,5.45
2023-02-25T21:02:20.216Z,5.68
2023-02-25T21:04:48.810Z,8.68
2023-02-25T21:07:18.681Z,5.95
2023-02-25T21:09:47.143Z,6.97
2023-02-25T21:12:15.839Z,7.13
2023-02-25T21:14:44.493Z,7.03
2023-02-25T21:17:13.770Z,6.68
2023-02-25T21:19:42.569Z,8.43
2023-02-25T21:22:11.163Z,9.05
2023-02-25T21:24:41.102Z,7.05
2023-02-25T21:27:09.645Z,9.50
2023-02-25T21:29:38.522Z,11.85
2023-02-25T21:32:07.253Z,10.73
2023-02-25T21:34:35.909Z,10.45
2023-02-25T21:37:04.739Z,8.57
2023-02-25T21:39:33.230Z,9.20
2023-02-25T21:42:03.097Z,6.90
2023-02-25T21:44:31.619Z,9.50
2023-02-25T21:47:00.238Z,11.70
2023-02-25T21:49:30.882Z,9.82
2023-02-25T21:52:00.278Z,11.85
2023-02-25T21:54:28.856Z,10.15
2023-02-25T21:56:57.312Z,7.28
2023-02-25T21:59:29.841Z,7.55
2023-02-25T22:01:59.311Z,13.25
2023-02-25T22:04:28.446Z,10.13
2023-02-25T22:06:57.153Z,14.48
2023-02-25T22:09:29.161Z,12.82
2023-02-25T22:11:59.104Z,11.98
2023-02-25T22:14:29.053Z,9.30
2023-02-25T22:16:57.595Z,7.10
2023-02-25T22:19:26.016Z,13.10
2023-02-25T22:21:55.489Z,14.45
2023-02-25T22:24:24.285Z,9.90
2023-02-25T22:26:52.723Z,8.88
2023-02-25T22:29:21.564Z,10.13
2023-02-25T22:31:51.476Z,9.00
2023-02-25T22:34:20.178Z,11.35
2023-02-25T22:36:48.770Z,11.50
2023-02-25T22:39:17.371Z,6.93
2023-02-25T22:41:45.804Z,7.47
2023-02-25T22:44:14.389Z,10.18
2023-02-25T22:46:43.002Z,4.72
2023-02-25T22:49:13.620Z,6.55
2023-02-25T22:51:42.988Z,6.55
2023-02-25T22:54:11.820Z,11.93
2023-02-25T22:56:40.415Z,5.05
2023-02-25T22:59:09.302Z,7.13
2023-02-25T23:01:38.049Z,10.85
2023-02-25T23:04:07.878Z,6.72
2023-02-25T23:06:44.103Z,8.73
2023-02-25T23:09:13.513Z,6.95
2023-02-25T23:11:43.424Z,8.45
2023-02-25T23:14:12.077Z,9.82
2023-02-25T23:16:41.366Z,11.25
2023-02-25T23:19:10.685Z,7.53
2023-02-25T23:21:40.569Z,9.13
2023-02-25T23:24:09.897Z,9.25
2023-02-25T23:26:39.506Z,9.50
2023-02-25T23:29:09.309Z,7.40
2023-02-25T23:31:38.695Z,11.40
2023-02-25T23:34:08.844Z,9.02
2023-02-25T23:36:37.799Z,8.63
2023-02-25T23:39:08.360Z,7.65
2023-02-25T23:41:37.623Z,8.45
2023-02-25T23:44:09.682Z,10.00
2023-02-25T23:46:38.747Z,7.45
2023-02-25T23:49:08.989Z,8.23
2023-02-25T23:51:38.467Z,10.07
2023-02-25T23:54:08.437Z,9.30
2023-02-25T23:56:37.043Z,12.85
2023-02-25T23:59:05.453Z,10.05
